Murray, NE

6:03 PM CDT on August 28, 2016 (GMT -0500)
Plattsmouth Municipal

Weather History for KPMV - December, 2012

Change the Weather History Date:

Thursday, December 6, 2012

  Actual Average (KOFF) Record (KOFF)
Temperature  
Mean Temperature 46 °F -  
Max Temperature 50 °F 40 °F 53 °F (2001)
Min Temperature 42 °F 23 °F -5 °F (2005)
Degree Days  
Heating Degree Days 19    
Moisture  
Dew Point 30 °F    
Average Humidity 54    
Maximum Humidity 63    
Minimum Humidity 45    
Precipitation  
Precipitation 0.00 in - - ()
Sea Level Pressure  
Sea Level Pressure 29.92 in    
Wind  
Wind Speed 10 mph (NNE)    
Max Wind Speed 16 mph    
Max Gust Speed 23 mph    
Visibility 10 miles    
Events      
Averages and records for this station are not official NWS values.
T = Trace of Precipitation, MM = Missing Value Source: NWS Daily Summary

Daily Weather History Graph

Daily Weather History Graph

Search for Another Location

Airport or City:

Trip Planner

Search our weather history database for the weather conditions in past years. The results will help you decide how hot, cold, wet, or windy it might be!

Date:

Astronomy

Dec. 06, 2012 Rise Set
Actual Time 7:34 AM CST 4:55 PM CST
Civil Twilight 7:03 AM CST 5:26 PM CST
Nautical Twilight 6:29 AM CST 6:00 PM CST
Astronomical Twilight 5:55 AM CST 6:33 PM CST
Moon No Moon Rise 12:24 PM CST (12/6)
Length of Visible Light 10h 22m
Length of Day
9h 21m
Waning Gibbous, 49% of the Moon is Illuminated
Dec 6
Waning Gibbous
Dec 13
New
Dec 19
First Quarter
Dec 28
Full
Jan 4
Last Quarter

Hourly Weather History & Observations

Time (CST) Temp. Windchill Dew Point Humidity Pressure Visibility Wind Dir Wind Speed Gust Speed Precip Events Conditions
12:15 AM 46.9 °F - 28.4 °F 49% 29.93 in 10.0 mi SSE 12.7 mph 17.3 mph N/A   Scattered Clouds
12:35 AM 47.1 °F - 28.8 °F 49% 29.92 in 10.0 mi SSE 12.7 mph - N/A   Clear
12:55 AM 46.8 °F - 28.9 °F 50% 29.91 in 10.0 mi SSE 11.5 mph - N/A   Clear
1:15 AM 46.6 °F - 29.1 °F 51% 29.90 in 10.0 mi SSE 13.8 mph 20.7 mph N/A   Clear
1:35 AM 46.9 °F - 28.9 °F 50% 29.89 in 10.0 mi SSE 15.0 mph 21.9 mph N/A   Clear
1:55 AM 46.8 °F - 29.1 °F 50% 29.88 in 10.0 mi SSE 15.0 mph 20.7 mph N/A   Clear
2:15 AM 46.9 °F - 29.1 °F 50% 29.87 in 10.0 mi SSE 13.8 mph 21.9 mph N/A   Clear
2:35 AM 46.9 °F - 28.9 °F 50% 29.88 in 10.0 mi South 12.7 mph - N/A   Clear
2:55 AM 47.3 °F - 28.8 °F 49% 29.89 in 10.0 mi South 13.8 mph 20.7 mph N/A   Clear
3:15 AM 47.3 °F - 28.6 °F 48% 29.89 in 10.0 mi South 13.8 mph - N/A   Clear
3:35 AM 47.3 °F - 28.8 °F 49% 29.88 in 10.0 mi South 15.0 mph - N/A   Clear
3:55 AM 46.4 °F 40.4 °F 28.8 °F 50% 29.87 in 10.0 mi South 13.8 mph - N/A   Clear
4:15 AM 46.0 °F 39.9 °F 28.9 °F 51% 29.86 in 10.0 mi South 13.8 mph - N/A   Clear
4:35 AM 45.9 °F 40.8 °F 29.1 °F 52% 29.86 in 10.0 mi South 10.4 mph - N/A   Clear
4:55 AM 45.5 °F 40.3 °F 29.1 °F 53% 29.86 in 10.0 mi South 10.4 mph - N/A   Clear
5:15 AM 45.9 °F 40.4 °F 29.3 °F 52% 29.87 in 10.0 mi South 11.5 mph - N/A   Clear
5:35 AM 45.7 °F 41.0 °F 29.3 °F 53% 29.87 in 10.0 mi SSE 9.2 mph - N/A   Scattered Clouds
5:55 AM 45.5 °F 42.5 °F 29.7 °F 54% 29.88 in 10.0 mi South 5.8 mph - N/A   Scattered Clouds
6:15 AM 45.3 °F 40.1 °F 29.8 °F 55% 29.88 in 10.0 mi South 10.4 mph - N/A   Clear
6:35 AM 44.8 °F 40.4 °F 30.0 °F 56% 29.89 in 10.0 mi South 8.1 mph - N/A   Clear
6:55 AM 44.6 °F 41.4 °F 30.2 °F 57% 29.89 in 10.0 mi South 5.8 mph - N/A   Clear
7:15 AM 44.6 °F 42.2 °F 30.2 °F 57% 29.89 in 10.0 mi South 4.6 mph - N/A   Mostly Cloudy
7:35 AM 44.8 °F 42.4 °F 30.7 °F 58% 29.90 in 10.0 mi SSE 4.6 mph - N/A   Overcast
7:55 AM 44.4 °F 42.0 °F 30.9 °F 59% 29.90 in 10.0 mi SSE 4.6 mph - N/A   Mostly Cloudy
8:15 AM 43.7 °F 40.3 °F 31.1 °F 61% 29.90 in 10.0 mi South 5.8 mph - N/A   Scattered Clouds
8:35 AM 44.1 °F 41.5 °F 31.1 °F 60% 29.89 in 10.0 mi SSE 4.6 mph - N/A   Scattered Clouds
8:55 AM 44.6 °F 43.1 °F 31.6 °F 60% 29.90 in 10.0 mi SSE 3.5 mph - N/A   Scattered Clouds
9:15 AM 44.8 °F 43.3 °F 32.0 °F 61% 29.91 in 10.0 mi South 3.5 mph - N/A   Scattered Clouds
9:35 AM 45.5 °F 44.2 °F 32.0 °F 59% 29.91 in 10.0 mi South 3.5 mph - N/A   Mostly Cloudy
9:55 AM 46.4 °F - 32.0 °F 57% 29.92 in 10.0 mi Calm Calm - N/A   Overcast
10:15 AM 47.3 °F - 32.0 °F 55% 29.91 in 10.0 mi SW 3.5 mph - N/A   Mostly Cloudy
10:35 AM 47.7 °F - 32.0 °F 55% 29.92 in 10.0 mi Calm Calm - N/A   Mostly Cloudy
10:55 AM 49.1 °F - 31.3 °F 50% 29.92 in 10.0 mi Calm Calm - N/A   Mostly Cloudy
11:15 AM 49.6 °F - 31.1 °F 49% 29.91 in 10.0 mi Calm Calm - N/A   Mostly Cloudy
11:35 AM 50.0 °F - 29.5 °F 45% 29.91 in 10.0 mi NNW 5.8 mph - N/A   Scattered Clouds
11:55 AM 49.3 °F - 29.3 °F 46% 29.91 in 10.0 mi NW 9.2 mph - N/A   Mostly Cloudy
12:15 PM 48.9 °F - 30.0 °F 48% 29.90 in 10.0 mi NNW 5.8 mph - N/A   Overcast
12:35 PM 48.7 °F - 31.1 °F 51% 29.91 in 10.0 mi North 6.9 mph - N/A   Overcast
12:55 PM 49.1 °F - 32.9 °F 54% 29.90 in 10.0 mi North 11.5 mph - N/A   Overcast
1:15 PM 49.3 °F - 32.9 °F 53% 29.91 in 10.0 mi North 6.9 mph - N/A   Overcast
1:35 PM 49.1 °F - 32.9 °F 54% 29.91 in 10.0 mi North 8.1 mph - N/A   Overcast
1:55 PM 49.6 °F - 32.9 °F 53% 29.91 in 10.0 mi North 9.2 mph - N/A   Overcast
2:15 PM 49.3 °F - 32.9 °F 53% 29.91 in 10.0 mi North 10.4 mph - N/A   Mostly Cloudy
2:35 PM 49.3 °F - 32.7 °F 53% 29.89 in 10.0 mi North 13.8 mph 18.4 mph N/A   Mostly Cloudy
2:55 PM 48.4 °F - 31.8 °F 53% 29.89 in 10.0 mi North 15.0 mph 19.6 mph N/A   Overcast
3:15 PM 47.3 °F - 32.0 °F 55% 29.89 in 10.0 mi North 16.1 mph 23.0 mph N/A   Overcast
3:35 PM 47.3 °F - 32.4 °F 56% 29.91 in 10.0 mi North 10.4 mph 17.3 mph N/A   Overcast
3:55 PM 47.3 °F - 32.0 °F 55% 29.91 in 10.0 mi North 10.4 mph 16.1 mph N/A   Overcast
4:15 PM 47.1 °F - 31.3 °F 54% 29.92 in 10.0 mi North 9.2 mph 16.1 mph N/A   Overcast
4:35 PM 46.9 °F - 30.2 °F 52% 29.93 in 10.0 mi North 11.5 mph 16.1 mph N/A   Overcast
4:55 PM 47.3 °F - 29.3 °F 50% 29.93 in 10.0 mi North 11.5 mph 17.3 mph N/A   Overcast
5:15 PM 46.9 °F - 29.3 °F 50% 29.93 in 10.0 mi North 12.7 mph 17.3 mph N/A   Overcast
5:35 PM 46.6 °F - 29.7 °F 52% 29.94 in 10.0 mi North 9.2 mph - N/A   Overcast
5:55 PM 46.4 °F 43.5 °F 29.7 °F 52% 29.94 in 10.0 mi North 5.8 mph - N/A   Overcast
6:15 PM 45.9 °F 43.6 °F 30.0 °F 54% 29.95 in 10.0 mi North 4.6 mph - N/A   Overcast
6:35 PM 45.9 °F 43.6 °F 30.0 °F 54% 29.95 in 10.0 mi North 4.6 mph - N/A   Overcast
6:55 PM 45.5 °F 43.2 °F 30.2 °F 55% 29.95 in 10.0 mi North 4.6 mph - N/A   Overcast
7:15 PM 45.5 °F 44.2 °F 30.2 °F 55% 29.96 in 10.0 mi North 3.5 mph - N/A   Overcast
7:35 PM 45.5 °F 42.5 °F 29.8 °F 54% 29.96 in 10.0 mi North 5.8 mph - N/A   Overcast
7:55 PM 45.5 °F 40.8 °F 29.8 °F 54% 29.97 in 10.0 mi North 9.2 mph - N/A   Overcast
8:35 PM 44.8 °F 41.0 °F 30.0 °F 56% 29.97 in 10.0 mi North 6.9 mph - N/A   Overcast
8:55 PM 44.6 °F 40.2 °F 30.2 °F 57% 29.97 in 10.0 mi NNE 8.1 mph - N/A   Overcast
9:15 PM 44.6 °F 40.7 °F 30.2 °F 57% 29.97 in 10.0 mi North 6.9 mph - N/A   Overcast
9:35 PM 44.2 °F 41.0 °F 30.2 °F 58% 29.97 in 10.0 mi North 5.8 mph - N/A   Overcast
9:55 PM 44.1 °F 42.5 °F 30.6 °F 59% 29.98 in 10.0 mi North 3.5 mph - N/A   Overcast
10:15 PM 43.9 °F - 30.2 °F 59% 29.99 in 10.0 mi Calm Calm - N/A   Overcast
10:35 PM 43.5 °F - 30.6 °F 60% 29.99 in 10.0 mi Calm Calm - N/A   Overcast
10:55 PM 43.2 °F 41.5 °F 30.9 °F 62% 29.99 in 10.0 mi North 3.5 mph - N/A   Overcast
11:15 PM 42.6 °F 40.9 °F 30.9 °F 63% 29.99 in 10.0 mi North 3.5 mph - N/A   Overcast
11:35 PM 42.8 °F 40.1 °F 30.0 °F 61% 29.98 in 10.0 mi North 4.6 mph - N/A   Overcast
11:55 PM 42.3 °F 39.4 °F 30.0 °F 62% 29.98 in 10.0 mi NNW 4.6 mph - N/A   Overcast